createdAt,value
2022-09-12T00:00:03.311Z,99.90
2022-09-12T00:02:32.305Z,99.90
2022-09-12T00:05:00.272Z,99.90
2022-09-12T00:07:27.920Z,99.90
2022-09-12T00:09:55.589Z,99.90
2022-09-12T00:12:23.206Z,99.90
2022-09-12T00:14:50.865Z,99.90
2022-09-12T00:17:18.517Z,99.90
2022-09-12T00:19:47.513Z,99.90
2022-09-12T00:22:15.177Z,99.90
2022-09-12T00:24:42.801Z,99.90
2022-09-12T00:27:10.501Z,99.90
2022-09-12T00:29:38.302Z,99.90
2022-09-12T00:32:05.982Z,99.90
2022-09-12T00:34:33.665Z,99.90
2022-09-12T00:37:02.650Z,99.90
2022-09-12T00:39:30.330Z,99.90
2022-09-12T00:41:57.977Z,99.90
2022-09-12T00:44:45.693Z,99.90
2022-09-12T00:47:16.145Z,99.90
2022-09-12T00:49:46.045Z,99.90
2022-09-12T00:52:17.039Z,99.90
2022-09-12T00:54:46.553Z,99.90
2022-09-12T00:57:15.524Z,99.90
2022-09-12T00:59:47.874Z,99.90
2022-09-12T01:02:15.868Z,99.90
2022-09-12T01:04:44.426Z,99.90
2022-09-12T01:07:12.639Z,99.90
2022-09-12T01:09:45.374Z,99.90
2022-09-12T01:12:14.576Z,99.90
2022-09-12T01:14:42.330Z,99.90
2022-09-12T01:17:12.656Z,99.90
2022-09-12T01:19:58.058Z,99.90
2022-09-12T01:22:41.350Z,99.90
2022-09-12T01:25:12.600Z,99.90
2022-09-12T01:27:47.880Z,99.90
2022-09-12T01:30:39.214Z,99.90
2022-09-12T01:33:24.758Z,99.90
2022-09-12T01:36:01.666Z,99.90
2022-09-12T01:38:33.126Z,99.90
2022-09-12T01:41:03.314Z,99.90
2022-09-12T01:43:35.256Z,99.90
2022-09-12T01:46:07.676Z,99.90
2022-09-12T01:48:37.096Z,99.90
2022-09-12T01:51:08.712Z,99.90
2022-09-12T01:53:39.088Z,99.90
2022-09-12T01:56:09.280Z,99.90
2022-09-12T01:58:40.553Z,99.90
2022-09-12T02:01:10.693Z,99.90
2022-09-12T02:03:41.455Z,99.90
2022-09-12T02:06:13.860Z,99.90
2022-09-12T02:08:45.356Z,99.90
2022-09-12T02:11:13.529Z,99.90
2022-09-12T02:13:43.087Z,99.90
2022-09-12T02:16:12.266Z,99.90
2022-09-12T02:18:41.246Z,99.90
2022-09-12T02:21:10.240Z,99.90
2022-09-12T02:23:39.244Z,99.90
2022-09-12T02:26:09.864Z,99.90
2022-09-12T02:28:39.557Z,99.90
2022-09-12T02:31:13.643Z,99.90
2022-09-12T02:33:46.276Z,99.90
2022-09-12T02:36:17.805Z,99.90
2022-09-12T02:38:46.788Z,99.90
2022-09-12T02:41:16.356Z,99.90
2022-09-12T02:43:44.069Z,99.90
2022-09-12T02:46:14.191Z,99.90
2022-09-12T02:48:43.653Z,99.90
2022-09-12T02:51:11.829Z,99.90
2022-09-12T02:53:41.528Z,99.90
2022-09-12T02:56:11.834Z,99.90
2022-09-12T02:58:39.501Z,99.90
2022-09-12T03:01:11.113Z,99.90
2022-09-12T03:03:55.039Z,99.90
2022-09-12T03:06:26.776Z,99.90
2022-09-12T03:09:00.338Z,99.90
2022-09-12T03:11:40.818Z,99.90
2022-09-12T03:14:14.180Z,99.90
2022-09-12T03:16:44.861Z,99.90
2022-09-12T03:19:19.884Z,99.90
2022-09-12T03:21:53.688Z,99.90
2022-09-12T03:24:25.442Z,99.90
2022-09-12T03:26:55.940Z,99.90
2022-09-12T03:29:25.535Z,99.90
2022-09-12T03:31:54.115Z,99.90
2022-09-12T03:34:22.459Z,99.90
2022-09-12T03:36:50.270Z,99.90
2022-09-12T03:39:18.147Z,99.90
2022-09-12T03:41:47.129Z,99.90
2022-09-12T03:44:14.729Z,99.90
2022-09-12T03:46:42.375Z,99.90
2022-09-12T03:49:10.729Z,99.90
2022-09-12T03:51:38.364Z,99.90
2022-09-12T03:54:06.332Z,99.90
2022-09-12T03:56:34.502Z,99.90
2022-09-12T03:59:05.404Z,99.90
2022-09-12T04:01:33.521Z,99.90
2022-09-12T04:04:01.216Z,99.90
2022-09-12T04:06:29.712Z,99.90
2022-09-12T04:08:57.338Z,99.90
2022-09-12T04:11:24.999Z,99.90
2022-09-12T04:13:52.645Z,99.90
2022-09-12T04:16:21.960Z,99.90
2022-09-12T04:18:49.610Z,99.90
2022-09-12T04:21:18.376Z,99.90
2022-09-12T04:23:46.425Z,99.90
2022-09-12T04:26:14.670Z,99.90
2022-09-12T04:28:42.478Z,99.90
2022-09-12T04:31:13.883Z,99.90
2022-09-12T04:33:43.031Z,99.90
2022-09-12T04:36:12.448Z,99.90
2022-09-12T04:38:40.079Z,99.90
2022-09-12T04:41:11.686Z,99.90
2022-09-12T04:43:39.318Z,99.90
2022-09-12T04:46:07.621Z,99.90
2022-09-12T04:48:35.483Z,99.90
2022-09-12T04:51:13.884Z,99.90
2022-09-12T04:53:42.036Z,99.90
2022-09-12T04:56:12.376Z,99.90
2022-09-12T04:58:40.004Z,99.90
2022-09-12T05:01:08.649Z,99.90
2022-09-12T05:03:38.886Z,99.90
2022-09-12T05:06:07.875Z,99.90
2022-09-12T05:08:37.108Z,99.90
2022-09-12T05:11:05.983Z,99.90
2022-09-12T05:13:34.002Z,99.90
2022-09-12T05:16:02.517Z,99.90
2022-09-12T05:18:31.989Z,99.90
2022-09-12T05:21:00.227Z,99.90
2022-09-12T05:23:27.940Z,99.90
2022-09-12T05:25:58.611Z,99.90
2022-09-12T05:28:29.473Z,99.90
2022-09-12T05:31:03.424Z,99.90
2022-09-12T05:33:31.505Z,99.90
2022-09-12T05:35:59.435Z,99.90
2022-09-12T05:38:29.017Z,99.90
2022-09-12T05:41:05.005Z,99.90
2022-09-12T05:43:33.017Z,99.90
2022-09-12T05:46:03.616Z,99.90
2022-09-12T05:48:31.482Z,99.90
2022-09-12T05:51:02.515Z,99.90
2022-09-12T05:53:30.365Z,99.90
2022-09-12T05:56:07.156Z,99.90
2022-09-12T05:58:35.295Z,99.90
2022-09-12T06:01:03.905Z,99.90
2022-09-12T06:03:31.579Z,99.90
2022-09-12T06:06:02.590Z,99.90
2022-09-12T06:08:30.499Z,99.90
2022-09-12T06:11:02.238Z,99.90
2022-09-12T06:13:31.863Z,99.90
2022-09-12T06:16:03.826Z,99.90
2022-09-12T06:18:31.434Z,99.90
2022-09-12T06:20:59.166Z,99.90
2022-09-12T06:23:27.472Z,99.90
2022-09-12T06:25:55.169Z,99.90
2022-09-12T06:28:22.825Z,99.90
2022-09-12T06:30:51.928Z,99.90
2022-09-12T06:33:19.856Z,99.90
2022-09-12T06:35:47.525Z,99.90
2022-09-12T06:38:15.930Z,99.90
2022-09-12T06:40:44.947Z,99.90
2022-09-12T06:43:15.423Z,99.90
2022-09-12T06:45:49.293Z,99.90
2022-09-12T06:48:20.036Z,99.90
2022-09-12T06:50:56.080Z,99.90
2022-09-12T06:53:23.694Z,99.90
2022-09-12T06:55:55.926Z,99.90
2022-09-12T06:58:23.574Z,99.90
2022-09-12T07:00:52.035Z,99.90
2022-09-12T07:03:23.003Z,99.90
2022-09-12T07:05:50.785Z,99.90
2022-09-12T07:08:18.420Z,99.90
2022-09-12T07:10:46.351Z,99.90
2022-09-12T07:13:14.133Z,99.90
2022-09-12T07:15:41.745Z,99.90
2022-09-12T07:18:10.132Z,99.90
2022-09-12T07:20:39.277Z,99.90
2022-09-12T07:23:06.909Z,99.90
2022-09-12T07:25:34.538Z,99.90
2022-09-12T07:28:02.294Z,99.90
2022-09-12T07:30:29.930Z,99.90
2022-09-12T07:32:57.569Z,99.90
2022-09-12T07:35:25.828Z,99.90
2022-09-12T07:37:57.242Z,99.90
2022-09-12T07:40:24.886Z,99.90
2022-09-12T07:42:52.639Z,99.90
2022-09-12T07:45:20.256Z,99.90
2022-09-12T07:47:47.913Z,99.90
2022-09-12T07:50:15.629Z,99.90
2022-09-12T07:52:43.389Z,99.90
2022-09-12T07:55:12.347Z,99.90
2022-09-12T07:57:39.993Z,99.90
2022-09-12T08:00:08.853Z,99.90
2022-09-12T08:02:37.028Z,99.90
2022-09-12T08:05:04.978Z,99.90
2022-09-12T08:07:34.092Z,99.90
2022-09-12T08:10:01.724Z,99.90
2022-09-12T08:12:32.208Z,99.90
2022-09-12T08:14:59.833Z,99.90
2022-09-12T08:17:29.836Z,99.90
2022-09-12T08:19:57.454Z,99.90
2022-09-12T08:22:25.841Z,99.90
2022-09-12T08:24:53.610Z,99.90
2022-09-12T08:27:21.363Z,99.90
2022-09-12T08:29:50.343Z,99.90
2022-09-12T08:32:18.008Z,99.90
2022-09-12T08:34:48.055Z,99.90
2022-09-12T08:37:15.724Z,99.90
2022-09-12T08:39:43.901Z,99.90
2022-09-12T08:42:17.964Z,99.90
2022-09-12T08:44:54.841Z,99.90
2022-09-12T08:47:24.682Z,99.90
2022-09-12T08:49:56.319Z,99.90
2022-09-12T08:52:26.531Z,99.90
2022-09-12T08:54:56.337Z,99.90
2022-09-12T08:57:24.178Z,99.90
2022-09-12T08:59:53.957Z,99.90
2022-09-12T09:02:34.474Z,99.90
2022-09-12T09:05:06.440Z,99.90
2022-09-12T09:07:58.529Z,99.90
2022-09-12T09:10:29.262Z,99.90
2022-09-12T09:13:00.746Z,99.90
2022-09-12T09:15:35.683Z,99.90
2022-09-12T09:18:06.320Z,99.90
2022-09-12T09:20:36.578Z,99.90
2022-09-12T09:23:07.833Z,99.90
2022-09-12T09:25:39.376Z,99.90
2022-09-12T09:28:08.537Z,99.90
2022-09-12T09:30:37.693Z,99.90
2022-09-12T09:33:06.037Z,99.90
2022-09-12T09:35:39.177Z,99.90
2022-09-12T09:38:12.798Z,99.90
2022-09-12T09:40:46.319Z,99.90
2022-09-12T09:43:19.949Z,99.90
2022-09-12T09:45:49.469Z,99.90
2022-09-12T09:48:19.337Z,99.90
2022-09-12T09:50:48.094Z,99.90
2022-09-12T09:53:23.110Z,99.90
2022-09-12T09:55:50.944Z,99.90
2022-09-12T09:58:28.881Z,99.90
2022-09-12T10:01:00.702Z,99.90
2022-09-12T10:03:33.018Z,99.90
2022-09-12T10:06:02.720Z,99.90
2022-09-12T10:08:31.975Z,99.90
2022-09-12T10:11:01.784Z,99.90
2022-09-12T10:13:37.254Z,99.90
2022-09-12T10:16:07.588Z,99.90
2022-09-12T10:18:36.651Z,99.90
2022-09-12T10:21:13.590Z,99.90
2022-09-12T10:23:41.515Z,99.90
2022-09-12T10:26:10.994Z,99.90
2022-09-12T10:28:41.143Z,99.90
2022-09-12T10:31:11.395Z,99.90
2022-09-12T10:33:41.980Z,99.90
2022-09-12T10:36:11.272Z,99.90
2022-09-12T10:38:38.977Z,99.90
2022-09-12T10:41:08.297Z,99.90
2022-09-12T10:43:37.284Z,99.90
2022-09-12T10:46:29.501Z,99.90
2022-09-12T10:49:22.324Z,99.90
2022-09-12T10:51:50.321Z,99.90
2022-09-12T10:54:19.070Z,99.90
2022-09-12T10:56:52.670Z,99.90
2022-09-12T10:59:25.212Z,99.90
2022-09-12T11:01:56.903Z,99.90
2022-09-12T11:04:27.575Z,99.90
2022-09-12T11:07:15.172Z,99.90
2022-09-12T11:09:47.617Z,99.90
2022-09-12T11:12:19.188Z,99.90
2022-09-12T11:14:52.509Z,99.90
2022-09-12T11:17:26.161Z,99.90
2022-09-12T11:20:02.420Z,99.90
2022-09-12T11:22:35.932Z,99.90
2022-09-12T11:25:13.910Z,99.90
2022-09-12T11:27:57.202Z,99.90
2022-09-12T11:30:24.860Z,99.90
2022-09-12T11:33:06.527Z,99.90
2022-09-12T11:35:35.289Z,99.90
2022-09-12T11:38:24.481Z,99.90
2022-09-12T11:40:55.630Z,99.90
2022-09-12T11:43:26.862Z,99.90
2022-09-12T11:45:54.984Z,99.90
2022-09-12T11:48:28.993Z,99.90
2022-09-12T11:50:57.854Z,99.90
2022-09-12T11:53:28.881Z,99.90
2022-09-12T11:55:59.491Z,99.90
2022-09-12T11:58:29.178Z,99.90
2022-09-12T12:00:58.654Z,99.90
2022-09-12T12:03:31.838Z,99.90
2022-09-12T12:06:04.128Z,99.90
2022-09-12T12:08:32.498Z,99.90
2022-09-12T12:11:01.306Z,99.90
2022-09-12T12:13:30.649Z,99.90
2022-09-12T12:16:00.019Z,99.90
2022-09-12T12:18:29.898Z,99.90
2022-09-12T12:20:57.986Z,99.90
2022-09-12T12:23:27.243Z,99.90
2022-09-12T12:25:55.777Z,99.90
2022-09-12T12:28:41.297Z,99.90
2022-09-12T12:31:09.897Z,99.90
2022-09-12T12:33:56.463Z,99.90
2022-09-12T12:36:33.857Z,99.90
2022-09-12T12:39:22.135Z,99.90
2022-09-12T12:41:49.797Z,99.90
2022-09-12T12:44:36.224Z,99.90
2022-09-12T12:47:18.015Z,99.90
2022-09-12T12:49:51.898Z,99.90
2022-09-12T12:52:20.448Z,99.90
2022-09-12T12:54:57.009Z,99.90
2022-09-12T12:57:29.758Z,99.90
2022-09-12T12:59:58.934Z,99.90
2022-09-12T13:02:29.259Z,99.90
2022-09-12T13:04:59.602Z,99.90
2022-09-12T13:07:29.885Z,99.90
2022-09-12T13:09:58.499Z,99.90
2022-09-12T13:12:27.230Z,99.90
2022-09-12T13:14:55.809Z,99.90
2022-09-12T13:17:26.231Z,99.90
2022-09-12T13:20:10.843Z,99.90
2022-09-12T13:22:44.806Z,99.90
2022-09-12T13:25:20.282Z,99.90
2022-09-12T13:27:57.683Z,99.90
2022-09-12T13:30:25.415Z,99.90
2022-09-12T13:32:53.732Z,99.90
2022-09-12T13:35:25.083Z,99.90
2022-09-12T13:37:56.938Z,99.90
2022-09-12T13:40:29.865Z,99.90
2022-09-12T13:43:08.973Z,99.90
2022-09-12T13:45:38.281Z,99.90
2022-09-12T13:48:07.795Z,99.90
2022-09-12T13:50:38.683Z,99.90
2022-09-12T13:53:10.049Z,99.90
2022-09-12T13:55:40.147Z,99.90
2022-09-12T13:58:16.249Z,99.90
2022-09-12T14:00:44.951Z,99.90
2022-09-12T14:03:43.915Z,99.90
2022-09-12T14:06:12.143Z,98.60
2022-09-12T14:08:41.794Z,96.40
2022-09-12T14:11:10.986Z,94.30
2022-09-12T14:13:39.733Z,92.70
2022-09-12T14:16:09.814Z,91.30
2022-09-12T14:18:38.578Z,90.50
2022-09-12T14:21:10.344Z,89.80
2022-09-12T14:23:40.965Z,89.90
2022-09-12T14:26:11.458Z,87.20
2022-09-12T14:28:40.814Z,87.00
2022-09-12T14:31:21.366Z,85.00
2022-09-12T14:33:50.023Z,83.80
2022-09-12T14:36:22.273Z,82.40
2022-09-12T14:38:51.080Z,81.00
2022-09-12T14:41:24.852Z,78.40
2022-09-12T14:43:54.021Z,79.10
2022-09-12T14:46:26.266Z,77.80
2022-09-12T14:48:54.788Z,78.20
2022-09-12T14:51:24.257Z,75.40
2022-09-12T14:53:52.077Z,76.50
2022-09-12T14:56:22.580Z,77.00
2022-09-12T14:58:51.721Z,79.40
2022-09-12T15:01:23.649Z,80.10
2022-09-12T15:03:53.338Z,81.50
2022-09-12T15:06:23.170Z,82.40
2022-09-12T15:08:50.926Z,82.60
2022-09-12T15:11:18.571Z,83.40
2022-09-12T15:13:46.189Z,84.40
2022-09-12T15:16:15.733Z,85.50
2022-09-12T15:18:43.692Z,86.40
2022-09-12T15:21:13.205Z,87.60
2022-09-12T15:23:42.867Z,87.80
2022-09-12T15:26:12.622Z,88.70
2022-09-12T15:28:40.289Z,88.40
2022-09-12T15:31:09.387Z,89.80
2022-09-12T15:33:38.399Z,90.30
2022-09-12T15:36:12.778Z,90.20
2022-09-12T15:38:40.422Z,90.10
2022-09-12T15:41:11.166Z,90.10
2022-09-12T15:43:38.833Z,89.80
2022-09-12T15:46:06.822Z,90.20
2022-09-12T15:48:34.506Z,90.40
2022-09-12T15:51:04.864Z,90.70
2022-09-12T15:53:32.822Z,90.90
2022-09-12T15:56:00.408Z,91.00
2022-09-12T15:58:28.017Z,91.00
2022-09-12T16:00:55.640Z,91.20
2022-09-12T16:03:24.696Z,91.30
2022-09-12T16:05:56.064Z,91.60
2022-09-12T16:08:25.055Z,91.60
2022-09-12T16:10:54.486Z,91.80
2022-09-12T16:13:22.209Z,92.00
2022-09-12T16:15:49.887Z,92.00
2022-09-12T16:18:20.601Z,92.10
2022-09-12T16:20:48.554Z,92.40
2022-09-12T16:23:16.204Z,92.30
2022-09-12T16:25:45.163Z,92.50
2022-09-12T16:28:12.957Z,92.60
2022-09-12T16:30:40.678Z,92.70
2022-09-12T16:33:08.585Z,92.90
2022-09-12T16:35:36.230Z,93.00
2022-09-12T16:38:03.897Z,93.10
2022-09-12T16:40:31.569Z,93.00
2022-09-12T16:43:00.611Z,93.00
2022-09-12T16:45:28.255Z,93.20
2022-09-12T16:47:55.926Z,93.40
2022-09-12T16:50:23.766Z,93.60
2022-09-12T16:52:51.451Z,93.60
2022-09-12T16:55:19.189Z,93.80
2022-09-12T16:57:49.368Z,94.10
2022-09-12T17:00:18.590Z,94.40
2022-09-12T17:02:47.551Z,94.70
2022-09-12T17:05:15.812Z,95.10
2022-09-12T17:07:43.449Z,95.30
2022-09-12T17:10:11.117Z,95.40
2022-09-12T17:12:38.760Z,96.00
2022-09-12T17:15:06.868Z,96.20
2022-09-12T17:17:35.842Z,95.90
2022-09-12T17:20:03.554Z,96.20
2022-09-12T17:22:31.173Z,96.40
2022-09-12T17:24:58.772Z,96.50
2022-09-12T17:27:26.516Z,96.70
2022-09-12T17:29:54.162Z,96.80
2022-09-12T17:32:21.819Z,97.40
2022-09-12T17:34:50.802Z,97.20
2022-09-12T17:37:18.454Z,97.30
2022-09-12T17:39:47.261Z,97.40
2022-09-12T17:42:14.952Z,97.60
2022-09-12T17:44:42.560Z,97.90
2022-09-12T17:47:10.163Z,98.00
2022-09-12T17:49:37.776Z,98.20
2022-09-12T17:52:06.931Z,98.30
2022-09-12T17:54:34.533Z,98.40
2022-09-12T17:57:02.329Z,98.60
2022-09-12T17:59:29.955Z,98.80
2022-09-12T18:02:20.327Z,98.90
2022-09-12T18:04:48.380Z,98.90
2022-09-12T18:07:18.890Z,99.10
2022-09-12T18:09:47.799Z,99.40
2022-09-12T18:12:15.846Z,99.70
2022-09-12T18:14:43.472Z,99.90
2022-09-12T18:17:11.564Z,99.90
2022-09-12T18:19:39.422Z,99.90
2022-09-12T18:22:09.424Z,99.90
2022-09-12T18:24:38.439Z,99.90
2022-09-12T18:27:06.139Z,99.90
2022-09-12T18:29:33.761Z,99.90
2022-09-12T18:32:01.512Z,99.90
2022-09-12T18:34:29.150Z,99.90
2022-09-12T18:36:56.777Z,99.90
2022-09-12T18:39:27.677Z,99.90
2022-09-12T18:41:57.220Z,99.90
2022-09-12T18:44:24.829Z,99.90
2022-09-12T18:46:52.810Z,99.90
2022-09-12T18:49:20.439Z,99.90
2022-09-12T18:51:48.135Z,99.90
2022-09-12T18:54:17.537Z,99.90
2022-09-12T18:56:45.831Z,99.90
2022-09-12T18:59:14.995Z,99.90
2022-09-12T19:01:42.835Z,99.90
2022-09-12T19:04:11.769Z,99.90
2022-09-12T19:06:40.171Z,99.90
2022-09-12T19:09:08.994Z,99.90
2022-09-12T19:11:38.104Z,99.90
2022-09-12T19:14:05.967Z,99.90
2022-09-12T19:16:35.127Z,99.90
2022-09-12T19:19:03.062Z,99.90
2022-09-12T19:21:31.594Z,99.90
2022-09-12T19:24:00.585Z,99.90
2022-09-12T19:26:28.367Z,99.90
2022-09-12T19:28:56.316Z,99.90
2022-09-12T19:31:24.332Z,99.90
2022-09-12T19:33:53.773Z,99.90
2022-09-12T19:36:43.883Z,99.90
2022-09-12T19:39:10.612Z,99.90
2022-09-12T19:41:38.232Z,99.90
2022-09-12T19:44:05.922Z,99.90
2022-09-12T19:46:33.585Z,99.90
2022-09-12T19:49:03.333Z,99.90
2022-09-12T19:51:31.470Z,99.90
2022-09-12T19:53:59.091Z,99.90
2022-09-12T19:56:26.796Z,99.90
2022-09-12T19:58:56.726Z,99.90
2022-09-12T20:01:27.704Z,99.90
2022-09-12T20:03:55.610Z,99.90
2022-09-12T20:06:24.797Z,99.90
2022-09-12T20:08:52.412Z,99.90
2022-09-12T20:11:20.787Z,99.90
2022-09-12T20:13:48.492Z,99.90
2022-09-12T20:16:21.265Z,99.90
2022-09-12T20:18:53.589Z,99.90
2022-09-12T20:21:24.851Z,99.90
2022-09-12T20:23:53.854Z,99.90
2022-09-12T20:26:23.408Z,99.90
2022-09-12T20:28:51.770Z,99.90
2022-09-12T20:31:19.463Z,99.90
2022-09-12T20:33:51.626Z,99.90
2022-09-12T20:36:20.357Z,99.90
2022-09-12T20:38:48.736Z,99.90
2022-09-12T20:41:17.972Z,99.90
2022-09-12T20:43:45.646Z,99.90
2022-09-12T20:46:13.279Z,99.90
2022-09-12T20:48:40.951Z,99.90
2022-09-12T20:51:08.882Z,99.90
2022-09-12T20:53:36.515Z,99.90
2022-09-12T20:56:05.300Z,99.90
2022-09-12T20:58:34.719Z,99.90
2022-09-12T21:01:08.306Z,99.90
2022-09-12T21:03:37.648Z,99.90
2022-09-12T21:06:05.488Z,99.90
2022-09-12T21:08:33.530Z,99.90
2022-09-12T21:11:01.149Z,99.90
2022-09-12T21:13:28.969Z,99.90
2022-09-12T21:16:00.406Z,99.90
2022-09-12T21:18:28.380Z,99.90
2022-09-12T21:20:56.491Z,99.90
2022-09-12T21:23:24.710Z,99.90
2022-09-12T21:25:52.950Z,99.90
2022-09-12T21:28:21.098Z,99.90
2022-09-12T21:30:49.550Z,99.90
2022-09-12T21:33:19.244Z,99.90
2022-09-12T21:35:46.998Z,99.90
2022-09-12T21:38:15.150Z,99.90
2022-09-12T21:40:42.928Z,99.90
2022-09-12T21:43:12.732Z,99.90
2022-09-12T21:45:40.908Z,99.90
2022-09-12T21:48:08.569Z,99.90
2022-09-12T21:50:37.571Z,99.90
2022-09-12T21:53:05.245Z,99.90
2022-09-12T21:55:32.985Z,99.90
2022-09-12T21:58:00.654Z,99.90
2022-09-12T22:00:28.290Z,99.90
2022-09-12T22:02:56.205Z,99.90
2022-09-12T22:05:24.632Z,99.90
2022-09-12T22:07:53.629Z,99.90
2022-09-12T22:10:21.231Z,99.90
2022-09-12T22:12:48.919Z,99.90
2022-09-12T22:15:40.013Z,99.90
2022-09-12T22:18:04.260Z,99.90
2022-09-12T22:20:31.890Z,99.90
2022-09-12T22:23:22.395Z,99.90
2022-09-12T22:25:53.996Z,99.90
2022-09-12T22:28:21.689Z,99.90
2022-09-12T22:30:49.485Z,99.90
2022-09-12T22:33:17.346Z,99.90
2022-09-12T22:35:45.122Z,99.90
2022-09-12T22:38:14.120Z,99.90
2022-09-12T22:40:41.746Z,99.90
2022-09-12T22:43:09.828Z,99.90
2022-09-12T22:45:37.449Z,99.90
2022-09-12T22:48:08.938Z,99.90
2022-09-12T22:50:36.937Z,99.90
2022-09-12T22:53:04.553Z,99.90
2022-09-12T22:55:33.572Z,99.90
2022-09-12T22:58:01.294Z,99.90
2022-09-12T23:00:29.718Z,99.90
2022-09-12T23:02:58.388Z,99.90
2022-09-12T23:05:26.111Z,99.90
2022-09-12T23:07:53.754Z,99.90
2022-09-12T23:10:21.381Z,99.90
2022-09-12T23:12:50.494Z,99.90
2022-09-12T23:15:18.129Z,99.90
2022-09-12T23:17:45.765Z,99.90
2022-09-12T23:20:13.409Z,99.90
2022-09-12T23:22:41.085Z,99.90
2022-09-12T23:25:09.752Z,99.90
2022-09-12T23:27:37.376Z,99.90
2022-09-12T23:30:07.620Z,99.90
2022-09-12T23:32:35.362Z,99.90
2022-09-12T23:35:03.291Z,99.90
2022-09-12T23:37:31.006Z,99.90
2022-09-12T23:39:58.674Z,99.90
2022-09-12T23:42:26.386Z,99.90
2022-09-12T23:44:54.001Z,99.90
2022-09-12T23:47:23.018Z,99.90
2022-09-12T23:49:50.738Z,99.90
2022-09-12T23:52:18.373Z,99.90
2022-09-12T23:54:46.524Z,99.90
2022-09-12T23:57:14.398Z,99.90
2022-09-12T23:59:42.001Z,99.90
